sensor_id;sensor_type;location;lat;lon;timestamp;temperature;humidity
10083;DHT22;5080;48.528;8.078;2023-02-19T00:01:33;13.00;99.90
10083;DHT22;5080;48.528;8.078;2023-02-19T00:04:03;12.90;99.90
10083;DHT22;5080;48.528;8.078;2023-02-19T00:06:31;13.00;99.90
10083;DHT22;5080;48.528;8.078;2023-02-19T00:08:58;12.90;99.90
10083;DHT22;5080;48.528;8.078;2023-02-19T00:11:26;12.90;99.90
10083;DHT22;5080;48.528;8.078;2023-02-19T00:13:55;12.90;99.90
10083;DHT22;5080;48.528;8.078;2023-02-19T00:16:25;12.80;99.90
10083;DHT22;5080;48.528;8.078;2023-02-19T00:18:54;12.80;99.90
10083;DHT22;5080;48.528;8.078;2023-02-19T00:21:23;12.80;99.90
10083;DHT22;5080;48.528;8.078;2023-02-19T00:23:51;12.80;99.90
10083;DHT22;5080;48.528;8.078;2023-02-19T00:26:18;12.80;99.90
10083;DHT22;5080;48.528;8.078;2023-02-19T00:28:46;12.80;99.90
10083;DHT22;5080;48.528;8.078;2023-02-19T00:31:16;12.90;99.90
10083;DHT22;5080;48.528;8.078;2023-02-19T00:33:43;13.00;99.90
10083;DHT22;5080;48.528;8.078;2023-02-19T00:36:10;13.00;99.90
10083;DHT22;5080;48.528;8.078;2023-02-19T00:38:40;13.10;99.90
10083;DHT22;5080;48.528;8.078;2023-02-19T00:41:08;13.10;99.90
10083;DHT22;5080;48.528;8.078;2023-02-19T00:43:48;13.10;99.90
10083;DHT22;5080;48.528;8.078;2023-02-19T00:46:17;13.10;99.90
10083;DHT22;5080;48.528;8.078;2023-02-19T00:48:45;13.10;99.90
10083;DHT22;5080;48.528;8.078;2023-02-19T00:51:12;13.10;99.90
10083;DHT22;5080;48.528;8.078;2023-02-19T00:53:41;13.10;99.90
10083;DHT22;5080;48.528;8.078;2023-02-19T00:56:08;13.20;99.90
10083;DHT22;5080;48.528;8.078;2023-02-19T00:58:35;13.20;99.90
10083;DHT22;5080;48.528;8.078;2023-02-19T01:01:03;13.10;99.90
10083;DHT22;5080;48.528;8.078;2023-02-19T01:03:31;13.00;99.90
10083;DHT22;5080;48.528;8.078;2023-02-19T01:05:58;13.00;99.90
10083;DHT22;5080;48.528;8.078;2023-02-19T01:08:25;12.90;99.90
10083;DHT22;5080;48.528;8.078;2023-02-19T01:10:53;12.90;99.90
10083;DHT22;5080;48.528;8.078;2023-02-19T01:13:20;12.90;99.90
10083;DHT22;5080;48.528;8.078;2023-02-19T01:15:46;13.00;99.90
10083;DHT22;5080;48.528;8.078;2023-02-19T01:18:14;13.00;99.90
10083;DHT22;5080;48.528;8.078;2023-02-19T01:20:42;13.10;99.90
10083;DHT22;5080;48.528;8.078;2023-02-19T01:23:10;13.10;99.90
10083;DHT22;5080;48.528;8.078;2023-02-19T01:25:37;13.00;99.90
10083;DHT22;5080;48.528;8.078;2023-02-19T01:28:06;13.00;99.90
10083;DHT22;5080;48.528;8.078;2023-02-19T01:30:33;12.90;99.90
10083;DHT22;5080;48.528;8.078;2023-02-19T01:33:01;12.90;99.90
10083;DHT22;5080;48.528;8.078;2023-02-19T01:35:28;12.80;99.90
10083;DHT22;5080;48.528;8.078;2023-02-19T01:37:56;12.80;99.90
10083;DHT22;5080;48.528;8.078;2023-02-19T01:40:23;12.70;99.90
10083;DHT22;5080;48.528;8.078;2023-02-19T01:42:50;12.70;99.90
10083;DHT22;5080;48.528;8.078;2023-02-19T01:45:25;12.80;99.90
10083;DHT22;5080;48.528;8.078;2023-02-19T01:48:08;12.70;99.90
10083;DHT22;5080;48.528;8.078;2023-02-19T01:50:39;12.70;99.90
10083;DHT22;5080;48.528;8.078;2023-02-19T01:53:08;12.70;99.90
10083;DHT22;5080;48.528;8.078;2023-02-19T01:55:38;12.60;99.90
10083;DHT22;5080;48.528;8.078;2023-02-19T01:58:07;12.60;99.90
10083;DHT22;5080;48.528;8.078;2023-02-19T02:00:36;12.50;99.90
10083;DHT22;5080;48.528;8.078;2023-02-19T02:03:03;12.50;99.90
10083;DHT22;5080;48.528;8.078;2023-02-19T02:05:41;12.50;99.90
10083;DHT22;5080;48.528;8.078;2023-02-19T02:08:11;12.50;99.90
10083;DHT22;5080;48.528;8.078;2023-02-19T02:10:56;12.40;99.90
10083;DHT22;5080;48.528;8.078;2023-02-19T02:13:23;12.40;99.90
10083;DHT22;5080;48.528;8.078;2023-02-19T02:15:59;12.40;99.90
10083;DHT22;5080;48.528;8.078;2023-02-19T02:18:36;12.30;99.90
10083;DHT22;5080;48.528;8.078;2023-02-19T02:24:36;12.20;99.90
10083;DHT22;5080;48.528;8.078;2023-02-19T02:27:21;12.20;99.90
10083;DHT22;5080;48.528;8.078;2023-02-19T02:30:08;12.10;99.90
10083;DHT22;5080;48.528;8.078;2023-02-19T02:32:41;12.00;99.90
10083;DHT22;5080;48.528;8.078;2023-02-19T02:35:19;12.00;99.90
10083;DHT22;5080;48.528;8.078;2023-02-19T02:37:48;11.90;99.90
10083;DHT22;5080;48.528;8.078;2023-02-19T02:40:17;11.90;99.90
10083;DHT22;5080;48.528;8.078;2023-02-19T02:42:44;11.90;99.90
10083;DHT22;5080;48.528;8.078;2023-02-19T02:45:29;11.80;99.90
10083;DHT22;5080;48.528;8.078;2023-02-19T02:51:05;11.70;99.90
10083;DHT22;5080;48.528;8.078;2023-02-19T02:53:37;11.70;99.90
10083;DHT22;5080;48.528;8.078;2023-02-19T02:56:24;11.80;99.90
10083;DHT22;5080;48.528;8.078;2023-02-19T02:58:52;11.90;99.90
10083;DHT22;5080;48.528;8.078;2023-02-19T03:01:26;11.90;99.90
10083;DHT22;5080;48.528;8.078;2023-02-19T03:04:14;12.00;99.90
10083;DHT22;5080;48.528;8.078;2023-02-19T03:06:42;12.00;99.90
10083;DHT22;5080;48.528;8.078;2023-02-19T03:09:11;12.00;99.90
10083;DHT22;5080;48.528;8.078;2023-02-19T03:11:42;12.10;99.90
10083;DHT22;5080;48.528;8.078;2023-02-19T03:14:32;11.90;99.90
10083;DHT22;5080;48.528;8.078;2023-02-19T03:17:23;11.80;99.90
10083;DHT22;5080;48.528;8.078;2023-02-19T03:20:12;11.80;99.90
10083;DHT22;5080;48.528;8.078;2023-02-19T03:22:41;11.80;99.90
10083;DHT22;5080;48.528;8.078;2023-02-19T03:25:12;11.70;99.90
10083;DHT22;5080;48.528;8.078;2023-02-19T03:27:59;11.70;99.90
10083;DHT22;5080;48.528;8.078;2023-02-19T03:30:29;11.70;99.90
10083;DHT22;5080;48.528;8.078;2023-02-19T03:33:00;11.60;99.90
10083;DHT22;5080;48.528;8.078;2023-02-19T03:35:30;11.60;99.90
10083;DHT22;5080;48.528;8.078;2023-02-19T03:38:01;11.60;99.90
10083;DHT22;5080;48.528;8.078;2023-02-19T03:40:30;11.60;99.90
10083;DHT22;5080;48.528;8.078;2023-02-19T03:43:05;11.60;99.90
10083;DHT22;5080;48.528;8.078;2023-02-19T03:45:43;11.60;99.90
10083;DHT22;5080;48.528;8.078;2023-02-19T03:48:23;11.40;99.90
10083;DHT22;5080;48.528;8.078;2023-02-19T03:50:58;11.50;99.90
10083;DHT22;5080;48.528;8.078;2023-02-19T03:53:31;11.50;99.90
10083;DHT22;5080;48.528;8.078;2023-02-19T03:56:06;11.30;99.90
10083;DHT22;5080;48.528;8.078;2023-02-19T03:58:40;11.30;99.90
10083;DHT22;5080;48.528;8.078;2023-02-19T04:01:12;11.30;99.90
10083;DHT22;5080;48.528;8.078;2023-02-19T04:03:47;11.30;99.90
10083;DHT22;5080;48.528;8.078;2023-02-19T04:06:18;11.20;99.90
10083;DHT22;5080;48.528;8.078;2023-02-19T04:08:51;11.10;99.90
10083;DHT22;5080;48.528;8.078;2023-02-19T04:11:19;11.20;99.90
10083;DHT22;5080;48.528;8.078;2023-02-19T04:13:50;11.20;99.90
10083;DHT22;5080;48.528;8.078;2023-02-19T04:16:21;11.20;99.90
10083;DHT22;5080;48.528;8.078;2023-02-19T04:18:51;11.10;99.90
10083;DHT22;5080;48.528;8.078;2023-02-19T04:21:21;11.10;99.90
10083;DHT22;5080;48.528;8.078;2023-02-19T04:23:48;11.20;99.90
10083;DHT22;5080;48.528;8.078;2023-02-19T04:26:16;11.20;99.90
10083;DHT22;5080;48.528;8.078;2023-02-19T04:28:45;11.20;99.90
10083;DHT22;5080;48.528;8.078;2023-02-19T04:31:12;11.20;99.90
10083;DHT22;5080;48.528;8.078;2023-02-19T04:33:39;11.20;99.90
10083;DHT22;5080;48.528;8.078;2023-02-19T04:36:09;11.20;99.90
10083;DHT22;5080;48.528;8.078;2023-02-19T04:38:36;11.20;99.90
10083;DHT22;5080;48.528;8.078;2023-02-19T04:41:03;11.20;99.90
10083;DHT22;5080;48.528;8.078;2023-02-19T04:43:30;11.20;99.90
10083;DHT22;5080;48.528;8.078;2023-02-19T04:45:59;11.20;99.90
10083;DHT22;5080;48.528;8.078;2023-02-19T04:48:27;11.20;99.90
10083;DHT22;5080;48.528;8.078;2023-02-19T04:50:54;11.30;99.90
10083;DHT22;5080;48.528;8.078;2023-02-19T04:53:22;11.30;99.90
10083;DHT22;5080;48.528;8.078;2023-02-19T04:55:49;11.20;99.90
10083;DHT22;5080;48.528;8.078;2023-02-19T04:58:18;11.20;99.90
10083;DHT22;5080;48.528;8.078;2023-02-19T05:00:45;11.20;99.90
10083;DHT22;5080;48.528;8.078;2023-02-19T05:03:12;11.20;99.90
10083;DHT22;5080;48.528;8.078;2023-02-19T05:05:39;11.20;99.90
10083;DHT22;5080;48.528;8.078;2023-02-19T05:08:06;11.30;99.90
10083;DHT22;5080;48.528;8.078;2023-02-19T05:10:34;11.30;99.90
10083;DHT22;5080;48.528;8.078;2023-02-19T05:13:01;11.30;99.90
10083;DHT22;5080;48.528;8.078;2023-02-19T05:15:27;11.30;99.90
10083;DHT22;5080;48.528;8.078;2023-02-19T05:17:54;11.30;99.90
10083;DHT22;5080;48.528;8.078;2023-02-19T05:20:21;11.20;99.90
10083;DHT22;5080;48.528;8.078;2023-02-19T05:22:48;11.20;99.90
10083;DHT22;5080;48.528;8.078;2023-02-19T05:25:15;11.30;99.90
10083;DHT22;5080;48.528;8.078;2023-02-19T05:27:43;11.30;99.90
10083;DHT22;5080;48.528;8.078;2023-02-19T05:30:11;11.20;99.90
10083;DHT22;5080;48.528;8.078;2023-02-19T05:32:38;11.20;99.90
10083;DHT22;5080;48.528;8.078;2023-02-19T05:35:05;11.30;99.90
10083;DHT22;5080;48.528;8.078;2023-02-19T05:37:32;11.30;99.90
10083;DHT22;5080;48.528;8.078;2023-02-19T05:39:59;11.30;99.90
10083;DHT22;5080;48.528;8.078;2023-02-19T05:42:26;11.30;99.90
10083;DHT22;5080;48.528;8.078;2023-02-19T05:44:54;11.30;99.90
10083;DHT22;5080;48.528;8.078;2023-02-19T05:47:21;11.30;99.90
10083;DHT22;5080;48.528;8.078;2023-02-19T05:49:47;11.20;99.90
10083;DHT22;5080;48.528;8.078;2023-02-19T05:52:14;11.20;99.90
10083;DHT22;5080;48.528;8.078;2023-02-19T05:54:41;11.00;99.90
10083;DHT22;5080;48.528;8.078;2023-02-19T05:57:08;11.00;99.90
10083;DHT22;5080;48.528;8.078;2023-02-19T05:59:35;11.00;99.90
10083;DHT22;5080;48.528;8.078;2023-02-19T06:02:03;11.10;99.90
10083;DHT22;5080;48.528;8.078;2023-02-19T06:04:30;11.10;99.90
10083;DHT22;5080;48.528;8.078;2023-02-19T06:06:56;11.10;99.90
10083;DHT22;5080;48.528;8.078;2023-02-19T06:09:23;11.10;99.90
10083;DHT22;5080;48.528;8.078;2023-02-19T06:11:50;11.10;99.90
10083;DHT22;5080;48.528;8.078;2023-02-19T06:14:17;11.00;99.90
10083;DHT22;5080;48.528;8.078;2023-02-19T06:16:44;11.00;99.90
10083;DHT22;5080;48.528;8.078;2023-02-19T06:19:12;11.00;99.90
10083;DHT22;5080;48.528;8.078;2023-02-19T06:21:39;11.00;99.90
10083;DHT22;5080;48.528;8.078;2023-02-19T06:24:07;11.00;99.90
10083;DHT22;5080;48.528;8.078;2023-02-19T06:26:34;11.00;99.90
10083;DHT22;5080;48.528;8.078;2023-02-19T06:29:01;10.90;99.90
10083;DHT22;5080;48.528;8.078;2023-02-19T06:31:29;10.90;99.90
10083;DHT22;5080;48.528;8.078;2023-02-19T06:33:55;11.00;99.90
10083;DHT22;5080;48.528;8.078;2023-02-19T06:36:24;11.00;99.90
10083;DHT22;5080;48.528;8.078;2023-02-19T06:38:51;11.00;99.90
10083;DHT22;5080;48.528;8.078;2023-02-19T06:41:17;11.00;99.90
10083;DHT22;5080;48.528;8.078;2023-02-19T06:43:45;11.10;99.90
10083;DHT22;5080;48.528;8.078;2023-02-19T06:46:12;11.10;99.90
10083;DHT22;5080;48.528;8.078;2023-02-19T06:48:40;11.10;99.90
10083;DHT22;5080;48.528;8.078;2023-02-19T06:51:10;11.20;99.90
10083;DHT22;5080;48.528;8.078;2023-02-19T06:53:38;11.10;99.90
10083;DHT22;5080;48.528;8.078;2023-02-19T06:56:18;11.10;99.90
10083;DHT22;5080;48.528;8.078;2023-02-19T06:58:46;11.10;99.90
10083;DHT22;5080;48.528;8.078;2023-02-19T07:01:13;11.10;99.90
10083;DHT22;5080;48.528;8.078;2023-02-19T07:03:40;11.00;99.90
10083;DHT22;5080;48.528;8.078;2023-02-19T07:06:07;11.00;99.90
10083;DHT22;5080;48.528;8.078;2023-02-19T07:08:34;11.00;99.90
10083;DHT22;5080;48.528;8.078;2023-02-19T07:11:02;11.00;99.90
10083;DHT22;5080;48.528;8.078;2023-02-19T07:13:29;11.00;99.90
10083;DHT22;5080;48.528;8.078;2023-02-19T07:15:58;11.00;99.90
10083;DHT22;5080;48.528;8.078;2023-02-19T07:18:32;11.00;99.90
10083;DHT22;5080;48.528;8.078;2023-02-19T07:21:02;11.00;99.90
10083;DHT22;5080;48.528;8.078;2023-02-19T07:23:29;11.00;99.90
10083;DHT22;5080;48.528;8.078;2023-02-19T07:25:56;11.00;99.90
10083;DHT22;5080;48.528;8.078;2023-02-19T07:28:24;11.00;99.90
10083;DHT22;5080;48.528;8.078;2023-02-19T07:30:51;11.00;99.90
10083;DHT22;5080;48.528;8.078;2023-02-19T07:33:18;11.00;99.90
10083;DHT22;5080;48.528;8.078;2023-02-19T07:35:45;11.00;99.90
10083;DHT22;5080;48.528;8.078;2023-02-19T07:38:14;11.00;99.90
10083;DHT22;5080;48.528;8.078;2023-02-19T07:40:41;11.10;99.90
10083;DHT22;5080;48.528;8.078;2023-02-19T07:43:08;11.00;99.90
10083;DHT22;5080;48.528;8.078;2023-02-19T07:45:36;11.00;99.90
10083;DHT22;5080;48.528;8.078;2023-02-19T07:48:03;11.00;99.90
10083;DHT22;5080;48.528;8.078;2023-02-19T07:50:30;10.90;99.90
10083;DHT22;5080;48.528;8.078;2023-02-19T07:52:57;11.00;99.90
10083;DHT22;5080;48.528;8.078;2023-02-19T07:55:24;11.10;99.90
10083;DHT22;5080;48.528;8.078;2023-02-19T07:57:51;11.20;99.90
10083;DHT22;5080;48.528;8.078;2023-02-19T08:00:18;11.20;99.90
10083;DHT22;5080;48.528;8.078;2023-02-19T08:02:46;11.20;99.90
10083;DHT22;5080;48.528;8.078;2023-02-19T08:05:24;11.20;99.90
10083;DHT22;5080;48.528;8.078;2023-02-19T08:07:52;11.20;99.90
10083;DHT22;5080;48.528;8.078;2023-02-19T08:10:19;11.20;99.90
10083;DHT22;5080;48.528;8.078;2023-02-19T08:13:03;11.30;99.90
10083;DHT22;5080;48.528;8.078;2023-02-19T08:15:47;11.20;99.90
10083;DHT22;5080;48.528;8.078;2023-02-19T08:18:17;11.30;99.90
10083;DHT22;5080;48.528;8.078;2023-02-19T08:20:44;11.30;99.90
10083;DHT22;5080;48.528;8.078;2023-02-19T08:23:11;11.30;99.90
10083;DHT22;5080;48.528;8.078;2023-02-19T08:25:38;11.20;99.90
10083;DHT22;5080;48.528;8.078;2023-02-19T08:28:06;11.20;99.90
10083;DHT22;5080;48.528;8.078;2023-02-19T08:30:34;11.30;99.90
10083;DHT22;5080;48.528;8.078;2023-02-19T08:33:03;11.20;99.90
10083;DHT22;5080;48.528;8.078;2023-02-19T08:35:33;11.30;99.90
10083;DHT22;5080;48.528;8.078;2023-02-19T08:38:01;11.30;99.90
10083;DHT22;5080;48.528;8.078;2023-02-19T08:40:28;11.30;99.90
10083;DHT22;5080;48.528;8.078;2023-02-19T08:42:55;11.20;99.90
10083;DHT22;5080;48.528;8.078;2023-02-19T08:45:27;11.20;99.90
10083;DHT22;5080;48.528;8.078;2023-02-19T08:47:54;11.20;99.90
10083;DHT22;5080;48.528;8.078;2023-02-19T08:50:21;11.20;99.90
10083;DHT22;5080;48.528;8.078;2023-02-19T08:52:49;11.30;99.90
10083;DHT22;5080;48.528;8.078;2023-02-19T08:55:16;11.20;99.90
10083;DHT22;5080;48.528;8.078;2023-02-19T08:57:43;11.30;99.90
10083;DHT22;5080;48.528;8.078;2023-02-19T09:00:11;11.20;99.90
10083;DHT22;5080;48.528;8.078;2023-02-19T09:02:38;11.20;99.90
10083;DHT22;5080;48.528;8.078;2023-02-19T09:05:05;11.10;99.90
10083;DHT22;5080;48.528;8.078;2023-02-19T09:07:32;11.20;99.90
10083;DHT22;5080;48.528;8.078;2023-02-19T09:10:01;11.20;99.90
10083;DHT22;5080;48.528;8.078;2023-02-19T09:12:27;11.20;99.90
10083;DHT22;5080;48.528;8.078;2023-02-19T09:14:54;11.20;99.90
10083;DHT22;5080;48.528;8.078;2023-02-19T09:17:21;11.30;99.90
10083;DHT22;5080;48.528;8.078;2023-02-19T09:19:48;11.30;99.90
10083;DHT22;5080;48.528;8.078;2023-02-19T09:22:16;11.40;99.90
10083;DHT22;5080;48.528;8.078;2023-02-19T09:24:43;11.40;99.90
10083;DHT22;5080;48.528;8.078;2023-02-19T09:27:14;11.40;99.90
10083;DHT22;5080;48.528;8.078;2023-02-19T09:29:42;11.50;99.90
10083;DHT22;5080;48.528;8.078;2023-02-19T09:32:09;11.50;99.90
10083;DHT22;5080;48.528;8.078;2023-02-19T09:34:36;11.50;99.90
10083;DHT22;5080;48.528;8.078;2023-02-19T09:37:04;11.60;99.90
10083;DHT22;5080;48.528;8.078;2023-02-19T09:39:31;11.70;99.90
10083;DHT22;5080;48.528;8.078;2023-02-19T09:42:01;11.70;99.90
10083;DHT22;5080;48.528;8.078;2023-02-19T09:44:32;11.80;99.90
10083;DHT22;5080;48.528;8.078;2023-02-19T09:47:00;11.90;99.90
10083;DHT22;5080;48.528;8.078;2023-02-19T09:49:32;11.90;99.90
10083;DHT22;5080;48.528;8.078;2023-02-19T09:52:02;12.00;99.90
10083;DHT22;5080;48.528;8.078;2023-02-19T09:54:32;12.00;99.90
10083;DHT22;5080;48.528;8.078;2023-02-19T09:57:00;12.00;99.90
10083;DHT22;5080;48.528;8.078;2023-02-19T09:59:32;12.10;99.90
10083;DHT22;5080;48.528;8.078;2023-02-19T10:02:04;12.10;99.90
10083;DHT22;5080;48.528;8.078;2023-02-19T10:04:38;12.10;99.90
10083;DHT22;5080;48.528;8.078;2023-02-19T10:07:10;12.20;99.90
10083;DHT22;5080;48.528;8.078;2023-02-19T10:09:38;12.20;99.90
10083;DHT22;5080;48.528;8.078;2023-02-19T10:12:12;12.30;99.90
10083;DHT22;5080;48.528;8.078;2023-02-19T10:14:44;12.60;99.90
10083;DHT22;5080;48.528;8.078;2023-02-19T10:17:22;12.50;99.90
10083;DHT22;5080;48.528;8.078;2023-02-19T10:19:49;12.50;99.90
10083;DHT22;5080;48.528;8.078;2023-02-19T10:22:17;12.40;99.90
10083;DHT22;5080;48.528;8.078;2023-02-19T10:24:45;12.50;99.90
10083;DHT22;5080;48.528;8.078;2023-02-19T10:27:16;12.40;99.90
10083;DHT22;5080;48.528;8.078;2023-02-19T10:29:46;12.40;99.90
10083;DHT22;5080;48.528;8.078;2023-02-19T10:32:16;12.40;99.90
10083;DHT22;5080;48.528;8.078;2023-02-19T10:34:45;12.30;99.90
10083;DHT22;5080;48.528;8.078;2023-02-19T10:37:14;12.30;99.90
10083;DHT22;5080;48.528;8.078;2023-02-19T10:39:42;12.20;99.90
10083;DHT22;5080;48.528;8.078;2023-02-19T10:42:15;12.20;99.90
10083;DHT22;5080;48.528;8.078;2023-02-19T10:44:46;12.10;99.90
10083;DHT22;5080;48.528;8.078;2023-02-19T10:47:18;12.20;99.90
10083;DHT22;5080;48.528;8.078;2023-02-19T10:49:46;12.30;99.90
10083;DHT22;5080;48.528;8.078;2023-02-19T10:52:17;12.30;99.90
10083;DHT22;5080;48.528;8.078;2023-02-19T10:54:45;12.40;99.90
10083;DHT22;5080;48.528;8.078;2023-02-19T10:57:23;12.20;99.90
10083;DHT22;5080;48.528;8.078;2023-02-19T10:59:57;12.20;99.90
10083;DHT22;5080;48.528;8.078;2023-02-19T11:02:26;12.10;99.90
10083;DHT22;5080;48.528;8.078;2023-02-19T11:05:14;12.20;99.90
10083;DHT22;5080;48.528;8.078;2023-02-19T11:07:43;12.20;99.90
10083;DHT22;5080;48.528;8.078;2023-02-19T11:10:20;12.30;99.90
10083;DHT22;5080;48.528;8.078;2023-02-19T11:12:50;12.40;99.90
10083;DHT22;5080;48.528;8.078;2023-02-19T11:15:22;12.40;99.90
10083;DHT22;5080;48.528;8.078;2023-02-19T11:17:54;12.20;99.90
10083;DHT22;5080;48.528;8.078;2023-02-19T11:20:22;12.40;99.90
10083;DHT22;5080;48.528;8.078;2023-02-19T11:22:49;12.40;99.90
10083;DHT22;5080;48.528;8.078;2023-02-19T11:25:20;12.40;99.90
10083;DHT22;5080;48.528;8.078;2023-02-19T11:27:54;12.50;99.90
10083;DHT22;5080;48.528;8.078;2023-02-19T11:30:40;12.50;99.90
10083;DHT22;5080;48.528;8.078;2023-02-19T11:33:21;12.50;99.90
10083;DHT22;5080;48.528;8.078;2023-02-19T11:35:50;12.50;99.90
10083;DHT22;5080;48.528;8.078;2023-02-19T11:38:18;12.50;99.90
10083;DHT22;5080;48.528;8.078;2023-02-19T11:40:50;12.50;99.90
10083;DHT22;5080;48.528;8.078;2023-02-19T11:43:40;12.60;99.90
10083;DHT22;5080;48.528;8.078;2023-02-19T11:46:15;12.50;99.90
10083;DHT22;5080;48.528;8.078;2023-02-19T11:48:51;12.50;99.90
10083;DHT22;5080;48.528;8.078;2023-02-19T11:51:42;12.50;99.90
10083;DHT22;5080;48.528;8.078;2023-02-19T11:54:28;12.50;99.90
10083;DHT22;5080;48.528;8.078;2023-02-19T11:57:07;12.60;99.90
10083;DHT22;5080;48.528;8.078;2023-02-19T11:59:42;12.60;99.90
10083;DHT22;5080;48.528;8.078;2023-02-19T12:02:31;12.60;99.90
10083;DHT22;5080;48.528;8.078;2023-02-19T12:05:15;12.60;99.90
10083;DHT22;5080;48.528;8.078;2023-02-19T12:10:48;12.70;99.90
10083;DHT22;5080;48.528;8.078;2023-02-19T12:13:22;12.70;99.90
10083;DHT22;5080;48.528;8.078;2023-02-19T12:16:00;12.60;99.90
10083;DHT22;5080;48.528;8.078;2023-02-19T12:18:58;12.60;99.90
10083;DHT22;5080;48.528;8.078;2023-02-19T12:21:44;12.50;99.90
10083;DHT22;5080;48.528;8.078;2023-02-19T12:24:37;12.50;99.90
10083;DHT22;5080;48.528;8.078;2023-02-19T12:27:19;12.50;99.90
10083;DHT22;5080;48.528;8.078;2023-02-19T12:32:52;12.50;99.90
10083;DHT22;5080;48.528;8.078;2023-02-19T12:35:44;12.50;99.90
10083;DHT22;5080;48.528;8.078;2023-02-19T12:38:24;12.50;99.90
10083;DHT22;5080;48.528;8.078;2023-02-19T12:41:05;12.50;99.90
10083;DHT22;5080;48.528;8.078;2023-02-19T12:43:40;12.50;99.90
10083;DHT22;5080;48.528;8.078;2023-02-19T12:46:13;12.60;99.90
10083;DHT22;5080;48.528;8.078;2023-02-19T12:48:47;12.70;99.90
10083;DHT22;5080;48.528;8.078;2023-02-19T12:51:21;12.60;99.90
10083;DHT22;5080;48.528;8.078;2023-02-19T12:53:53;12.70;99.90
10083;DHT22;5080;48.528;8.078;2023-02-19T12:56:23;12.70;99.90
10083;DHT22;5080;48.528;8.078;2023-02-19T12:58:54;12.80;99.90
10083;DHT22;5080;48.528;8.078;2023-02-19T13:01:27;12.90;99.90
10083;DHT22;5080;48.528;8.078;2023-02-19T13:04:16;13.00;99.90
10083;DHT22;5080;48.528;8.078;2023-02-19T13:06:50;13.00;99.90
10083;DHT22;5080;48.528;8.078;2023-02-19T13:09:22;13.10;99.90
10083;DHT22;5080;48.528;8.078;2023-02-19T13:11:57;13.20;99.90
10083;DHT22;5080;48.528;8.078;2023-02-19T13:14:28;13.10;99.90
10083;DHT22;5080;48.528;8.078;2023-02-19T13:16:59;13.20;99.90
10083;DHT22;5080;48.528;8.078;2023-02-19T13:19:26;13.10;99.90
10083;DHT22;5080;48.528;8.078;2023-02-19T13:22:03;13.10;99.90
10083;DHT22;5080;48.528;8.078;2023-02-19T13:24:49;13.10;99.90
10083;DHT22;5080;48.528;8.078;2023-02-19T13:27:32;13.10;99.90
10083;DHT22;5080;48.528;8.078;2023-02-19T13:30:22;13.10;99.90
10083;DHT22;5080;48.528;8.078;2023-02-19T13:32:57;13.10;99.90
10083;DHT22;5080;48.528;8.078;2023-02-19T13:38:42;13.10;99.90
10083;DHT22;5080;48.528;8.078;2023-02-19T13:41:19;13.10;99.90
10083;DHT22;5080;48.528;8.078;2023-02-19T13:43:54;13.10;99.90
10083;DHT22;5080;48.528;8.078;2023-02-19T13:46:21;13.20;99.90
10083;DHT22;5080;48.528;8.078;2023-02-19T13:52:32;13.10;99.90
10083;DHT22;5080;48.528;8.078;2023-02-19T14:01:02;13.00;99.90
10083;DHT22;5080;48.528;8.078;2023-02-19T14:03:44;13.00;99.90
10083;DHT22;5080;48.528;8.078;2023-02-19T14:06:12;13.10;99.90
10083;DHT22;5080;48.528;8.078;2023-02-19T14:08:56;13.10;99.90
10083;DHT22;5080;48.528;8.078;2023-02-19T14:12:01;13.20;99.90
10083;DHT22;5080;48.528;8.078;2023-02-19T14:14:34;13.00;99.90
10083;DHT22;5080;48.528;8.078;2023-02-19T14:17:22;13.00;99.90
10083;DHT22;5080;48.528;8.078;2023-02-19T14:19:55;13.20;99.90
10083;DHT22;5080;48.528;8.078;2023-02-19T14:25:33;12.80;99.90
10083;DHT22;5080;48.528;8.078;2023-02-19T14:28:05;12.80;99.90
10083;DHT22;5080;48.528;8.078;2023-02-19T14:30:44;12.80;99.90
10083;DHT22;5080;48.528;8.078;2023-02-19T14:33:15;12.80;99.90
10083;DHT22;5080;48.528;8.078;2023-02-19T14:35:45;12.70;99.90
10083;DHT22;5080;48.528;8.078;2023-02-19T14:38:17;12.70;99.90
10083;DHT22;5080;48.528;8.078;2023-02-19T14:40:46;12.70;99.90
10083;DHT22;5080;48.528;8.078;2023-02-19T14:43:16;12.60;99.90
10083;DHT22;5080;48.528;8.078;2023-02-19T14:45:46;12.70;99.90
10083;DHT22;5080;48.528;8.078;2023-02-19T14:48:20;12.70;99.90
10083;DHT22;5080;48.528;8.078;2023-02-19T14:50:51;12.70;99.90
10083;DHT22;5080;48.528;8.078;2023-02-19T14:53:21;12.80;99.90
10083;DHT22;5080;48.528;8.078;2023-02-19T14:55:49;12.80;99.90
10083;DHT22;5080;48.528;8.078;2023-02-19T14:58:21;12.70;99.90
10083;DHT22;5080;48.528;8.078;2023-02-19T15:00:49;12.70;99.90
10083;DHT22;5080;48.528;8.078;2023-02-19T15:03:40;12.80;99.90
10083;DHT22;5080;48.528;8.078;2023-02-19T15:06:12;12.80;99.90
10083;DHT22;5080;48.528;8.078;2023-02-19T15:08:45;12.80;99.90
10083;DHT22;5080;48.528;8.078;2023-02-19T15:11:17;12.70;99.90
10083;DHT22;5080;48.528;8.078;2023-02-19T15:13:47;12.80;99.90
10083;DHT22;5080;48.528;8.078;2023-02-19T15:16:16;12.70;99.90
10083;DHT22;5080;48.528;8.078;2023-02-19T15:18:46;12.60;99.90
10083;DHT22;5080;48.528;8.078;2023-02-19T15:21:21;12.60;99.90
10083;DHT22;5080;48.528;8.078;2023-02-19T15:23:49;12.60;99.90
10083;DHT22;5080;48.528;8.078;2023-02-19T15:26:20;12.60;99.90
10083;DHT22;5080;48.528;8.078;2023-02-19T15:28:56;12.60;99.90
10083;DHT22;5080;48.528;8.078;2023-02-19T15:31:24;12.60;99.90
10083;DHT22;5080;48.528;8.078;2023-02-19T15:33:53;12.60;99.90
10083;DHT22;5080;48.528;8.078;2023-02-19T15:36:25;12.50;99.90
10083;DHT22;5080;48.528;8.078;2023-02-19T15:38:54;12.60;99.90
10083;DHT22;5080;48.528;8.078;2023-02-19T15:41:25;12.60;99.90
10083;DHT22;5080;48.528;8.078;2023-02-19T15:43:58;12.60;99.90
10083;DHT22;5080;48.528;8.078;2023-02-19T15:46:25;12.60;99.90
10083;DHT22;5080;48.528;8.078;2023-02-19T15:48:59;12.70;99.90
10083;DHT22;5080;48.528;8.078;2023-02-19T15:51:31;12.60;99.90
10083;DHT22;5080;48.528;8.078;2023-02-19T15:54:06;12.60;99.90
10083;DHT22;5080;48.528;8.078;2023-02-19T15:56:38;12.40;99.90
10083;DHT22;5080;48.528;8.078;2023-02-19T15:59:17;12.50;99.90
10083;DHT22;5080;48.528;8.078;2023-02-19T16:01:45;12.50;99.90
10083;DHT22;5080;48.528;8.078;2023-02-19T16:04:15;12.60;99.90
10083;DHT22;5080;48.528;8.078;2023-02-19T16:06:52;12.60;99.90
10083;DHT22;5080;48.528;8.078;2023-02-19T16:09:21;12.60;99.90
10083;DHT22;5080;48.528;8.078;2023-02-19T16:11:50;12.50;99.90
10083;DHT22;5080;48.528;8.078;2023-02-19T16:14:22;12.50;99.90
10083;DHT22;5080;48.528;8.078;2023-02-19T16:16:52;12.50;99.90
10083;DHT22;5080;48.528;8.078;2023-02-19T16:19:22;12.50;99.90
10083;DHT22;5080;48.528;8.078;2023-02-19T16:21:51;12.50;99.90
10083;DHT22;5080;48.528;8.078;2023-02-19T16:24:25;12.40;99.90
10083;DHT22;5080;48.528;8.078;2023-02-19T16:26:54;12.40;99.90
10083;DHT22;5080;48.528;8.078;2023-02-19T16:29:23;12.30;99.90
10083;DHT22;5080;48.528;8.078;2023-02-19T16:31:55;12.30;99.90
10083;DHT22;5080;48.528;8.078;2023-02-19T16:34:32;12.30;99.90
10083;DHT22;5080;48.528;8.078;2023-02-19T16:37:01;12.30;99.90
10083;DHT22;5080;48.528;8.078;2023-02-19T16:39:28;12.20;99.90